sensor_id;sensor_type;location;lat;lon;timestamp;P1;durP1;ratioP1;P2;durP2;ratioP2
71937;SDS011;59810;48.800;9.086;2023-04-25T00:01:55;4.27;;;0.93;;
71937;SDS011;59810;48.800;9.086;2023-04-25T00:04:21;2.60;;;0.82;;
71937;SDS011;59810;48.800;9.086;2023-04-25T00:06:47;3.40;;;0.90;;
71937;SDS011;59810;48.800;9.086;2023-04-25T00:09:12;2.95;;;1.00;;
71937;SDS011;59810;48.800;9.086;2023-04-25T00:11:38;3.80;;;1.00;;
71937;SDS011;59810;48.800;9.086;2023-04-25T00:14:03;2.60;;;0.90;;
71937;SDS011;59810;48.800;9.086;2023-04-25T00:16:32;3.88;;;1.30;;
71937;SDS011;59810;48.800;9.086;2023-04-25T00:19:00;3.55;;;1.30;;
71937;SDS011;59810;48.800;9.086;2023-04-25T00:21:29;4.10;;;1.20;;
71937;SDS011;59810;48.800;9.086;2023-04-25T00:23:58;5.28;;;1.10;;
71937;SDS011;59810;48.800;9.086;2023-04-25T00:26:24;3.42;;;1.10;;
71937;SDS011;59810;48.800;9.086;2023-04-25T00:28:51;3.20;;;1.02;;
71937;SDS011;59810;48.800;9.086;2023-04-25T00:31:17;3.20;;;1.20;;
71937;SDS011;59810;48.800;9.086;2023-04-25T00:33:42;3.57;;;1.30;;
71937;SDS011;59810;48.800;9.086;2023-04-25T00:36:07;4.20;;;1.30;;
71937;SDS011;59810;48.800;9.086;2023-04-25T00:38:33;4.57;;;1.20;;
71937;SDS011;59810;48.800;9.086;2023-04-25T00:40:58;3.73;;;1.30;;
71937;SDS011;59810;48.800;9.086;2023-04-25T00:43:27;3.70;;;1.30;;
71937;SDS011;59810;48.800;9.086;2023-04-25T00:45:54;6.00;;;1.30;;
71937;SDS011;59810;48.800;9.086;2023-04-25T00:48:22;4.15;;;1.30;;
71937;SDS011;59810;48.800;9.086;2023-04-25T00:50:51;4.00;;;1.33;;
71937;SDS011;59810;48.800;9.086;2023-04-25T00:53:18;3.83;;;1.23;;
71937;SDS011;59810;48.800;9.086;2023-04-25T00:55:45;4.88;;;1.50;;
71937;SDS011;59810;48.800;9.086;2023-04-25T00:58:15;4.07;;;1.50;;
71937;SDS011;59810;48.800;9.086;2023-04-25T01:00:41;4.73;;;1.50;;
71937;SDS011;59810;48.800;9.086;2023-04-25T01:03:07;4.28;;;1.27;;
71937;SDS011;59810;48.800;9.086;2023-04-25T01:05:32;4.53;;;1.33;;
71937;SDS011;59810;48.800;9.086;2023-04-25T01:07:58;4.07;;;1.40;;
71937;SDS011;59810;48.800;9.086;2023-04-25T01:10:24;4.70;;;1.70;;
71937;SDS011;59810;48.800;9.086;2023-04-25T01:12:49;3.37;;;1.30;;
71937;SDS011;59810;48.800;9.086;2023-04-25T01:15:15;5.87;;;1.50;;
71937;SDS011;59810;48.800;9.086;2023-04-25T01:17:41;4.20;;;1.80;;
71937;SDS011;59810;48.800;9.086;2023-04-25T01:20:11;5.53;;;1.73;;
71937;SDS011;59810;48.800;9.086;2023-04-25T01:22:39;7.47;;;1.70;;
71937;SDS011;59810;48.800;9.086;2023-04-25T01:25:04;5.30;;;1.50;;
71937;SDS011;59810;48.800;9.086;2023-04-25T01:27:30;4.78;;;1.60;;
71937;SDS011;59810;48.800;9.086;2023-04-25T01:29:56;4.27;;;1.30;;
71937;SDS011;59810;48.800;9.086;2023-04-25T01:32:22;4.53;;;1.30;;
71937;SDS011;59810;48.800;9.086;2023-04-25T01:34:48;4.63;;;1.30;;
71937;SDS011;59810;48.800;9.086;2023-04-25T01:37:14;5.47;;;1.40;;
71937;SDS011;59810;48.800;9.086;2023-04-25T01:39:42;5.78;;;1.50;;
71937;SDS011;59810;48.800;9.086;2023-04-25T01:42:10;4.75;;;1.55;;
71937;SDS011;59810;48.800;9.086;2023-04-25T01:44:35;4.70;;;1.53;;
71937;SDS011;59810;48.800;9.086;2023-04-25T01:47:03;4.85;;;1.50;;
71937;SDS011;59810;48.800;9.086;2023-04-25T01:49:29;4.23;;;1.60;;
71937;SDS011;59810;48.800;9.086;2023-04-25T01:51:56;5.72;;;1.58;;
71937;SDS011;59810;48.800;9.086;2023-04-25T01:54:22;6.00;;;1.53;;
71937;SDS011;59810;48.800;9.086;2023-04-25T01:56:50;4.50;;;1.50;;
71937;SDS011;59810;48.800;9.086;2023-04-25T01:59:16;4.47;;;1.33;;
71937;SDS011;59810;48.800;9.086;2023-04-25T02:01:46;3.47;;;1.30;;
71937;SDS011;59810;48.800;9.086;2023-04-25T02:04:12;3.93;;;1.53;;
71937;SDS011;59810;48.800;9.086;2023-04-25T02:06:37;4.37;;;1.40;;
71937;SDS011;59810;48.800;9.086;2023-04-25T02:09:02;5.30;;;1.40;;
71937;SDS011;59810;48.800;9.086;2023-04-25T02:11:28;4.30;;;1.50;;
71937;SDS011;59810;48.800;9.086;2023-04-25T02:13:53;5.03;;;1.40;;
71937;SDS011;59810;48.800;9.086;2023-04-25T02:16:18;6.10;;;1.47;;
71937;SDS011;59810;48.800;9.086;2023-04-25T02:18:44;4.83;;;1.33;;
71937;SDS011;59810;48.800;9.086;2023-04-25T02:21:11;4.88;;;1.58;;
71937;SDS011;59810;48.800;9.086;2023-04-25T02:23:37;3.90;;;1.67;;
71937;SDS011;59810;48.800;9.086;2023-04-25T02:26:03;3.07;;;1.13;;
71937;SDS011;59810;48.800;9.086;2023-04-25T02:28:28;4.13;;;1.45;;
71937;SDS011;59810;48.800;9.086;2023-04-25T02:30:53;5.00;;;2.20;;
71937;SDS011;59810;48.800;9.086;2023-04-25T02:33:19;4.43;;;1.50;;
71937;SDS011;59810;48.800;9.086;2023-04-25T02:35:47;5.25;;;1.45;;
71937;SDS011;59810;48.800;9.086;2023-04-25T02:38:12;5.67;;;1.70;;
71937;SDS011;59810;48.800;9.086;2023-04-25T02:40:41;3.67;;;1.50;;
71937;SDS011;59810;48.800;9.086;2023-04-25T02:43:06;4.30;;;1.40;;
71937;SDS011;59810;48.800;9.086;2023-04-25T02:45:32;3.95;;;1.60;;
71937;SDS011;59810;48.800;9.086;2023-04-25T02:47:57;4.20;;;1.33;;
71937;SDS011;59810;48.800;9.086;2023-04-25T02:50:25;3.88;;;1.60;;
71937;SDS011;59810;48.800;9.086;2023-04-25T02:52:50;3.93;;;1.50;;
71937;SDS011;59810;48.800;9.086;2023-04-25T02:55:15;5.33;;;1.43;;
71937;SDS011;59810;48.800;9.086;2023-04-25T02:57:43;4.63;;;1.50;;
71937;SDS011;59810;48.800;9.086;2023-04-25T03:00:08;5.37;;;1.77;;
71937;SDS011;59810;48.800;9.086;2023-04-25T03:02:36;5.22;;;1.60;;
71937;SDS011;59810;48.800;9.086;2023-04-25T03:05:04;3.88;;;1.52;;
71937;SDS011;59810;48.800;9.086;2023-04-25T03:07:29;5.07;;;1.57;;
71937;SDS011;59810;48.800;9.086;2023-04-25T03:09:55;4.60;;;1.60;;
71937;SDS011;59810;48.800;9.086;2023-04-25T03:12:21;4.50;;;1.70;;
71937;SDS011;59810;48.800;9.086;2023-04-25T03:14:46;4.07;;;1.27;;
71937;SDS011;59810;48.800;9.086;2023-04-25T03:17:12;4.70;;;1.73;;
71937;SDS011;59810;48.800;9.086;2023-04-25T03:19:42;4.53;;;1.63;;
71937;SDS011;59810;48.800;9.086;2023-04-25T03:22:07;5.10;;;1.90;;
71937;SDS011;59810;48.800;9.086;2023-04-25T03:24:33;5.90;;;1.73;;
71937;SDS011;59810;48.800;9.086;2023-04-25T03:26:58;7.27;;;1.50;;
71937;SDS011;59810;48.800;9.086;2023-04-25T03:29:23;3.75;;;1.50;;
71937;SDS011;59810;48.800;9.086;2023-04-25T03:31:49;4.73;;;1.70;;
71937;SDS011;59810;48.800;9.086;2023-04-25T03:34:15;4.93;;;1.77;;
71937;SDS011;59810;48.800;9.086;2023-04-25T03:36:40;4.80;;;1.60;;
71937;SDS011;59810;48.800;9.086;2023-04-25T03:39:05;5.77;;;1.83;;
71937;SDS011;59810;48.800;9.086;2023-04-25T03:41:31;3.87;;;1.60;;
71937;SDS011;59810;48.800;9.086;2023-04-25T03:43:56;4.90;;;1.70;;
71937;SDS011;59810;48.800;9.086;2023-04-25T03:46:24;3.83;;;1.30;;
71937;SDS011;59810;48.800;9.086;2023-04-25T03:48:49;4.57;;;1.60;;
71937;SDS011;59810;48.800;9.086;2023-04-25T03:51:14;7.07;;;1.80;;
71937;SDS011;59810;48.800;9.086;2023-04-25T03:53:40;7.10;;;1.77;;
71937;SDS011;59810;48.800;9.086;2023-04-25T03:56:11;6.00;;;1.80;;
71937;SDS011;59810;48.800;9.086;2023-04-25T03:58:36;6.15;;;1.80;;
71937;SDS011;59810;48.800;9.086;2023-04-25T04:01:02;6.50;;;2.30;;
71937;SDS011;59810;48.800;9.086;2023-04-25T04:03:32;5.88;;;2.20;;
71937;SDS011;59810;48.800;9.086;2023-04-25T04:05:57;4.77;;;1.90;;
71937;SDS011;59810;48.800;9.086;2023-04-25T04:08:24;8.60;;;2.28;;
71937;SDS011;59810;48.800;9.086;2023-04-25T04:10:49;6.13;;;2.20;;
71937;SDS011;59810;48.800;9.086;2023-04-25T04:13:15;6.82;;;2.33;;
71937;SDS011;59810;48.800;9.086;2023-04-25T04:15:40;4.80;;;2.00;;
71937;SDS011;59810;48.800;9.086;2023-04-25T04:18:05;6.20;;;2.30;;
71937;SDS011;59810;48.800;9.086;2023-04-25T04:20:31;6.30;;;2.20;;
71937;SDS011;59810;48.800;9.086;2023-04-25T04:22:56;5.40;;;2.20;;
71937;SDS011;59810;48.800;9.086;2023-04-25T04:25:22;5.78;;;1.92;;
71937;SDS011;59810;48.800;9.086;2023-04-25T04:27:47;5.23;;;2.10;;
71937;SDS011;59810;48.800;9.086;2023-04-25T04:30:13;6.33;;;2.17;;
71937;SDS011;59810;48.800;9.086;2023-04-25T04:32:38;5.23;;;2.07;;
71937;SDS011;59810;48.800;9.086;2023-04-25T04:35:04;8.02;;;2.72;;
71937;SDS011;59810;48.800;9.086;2023-04-25T04:37:31;6.63;;;2.20;;
71937;SDS011;59810;48.800;9.086;2023-04-25T04:39:57;5.90;;;2.38;;
71937;SDS011;59810;48.800;9.086;2023-04-25T04:42:23;5.80;;;2.30;;
71937;SDS011;59810;48.800;9.086;2023-04-25T04:44:49;7.70;;;2.45;;
71937;SDS011;59810;48.800;9.086;2023-04-25T04:47:15;8.25;;;2.63;;
71937;SDS011;59810;48.800;9.086;2023-04-25T04:49:40;6.90;;;2.60;;
71937;SDS011;59810;48.800;9.086;2023-04-25T04:52:05;5.57;;;2.30;;
71937;SDS011;59810;48.800;9.086;2023-04-25T04:54:31;4.90;;;2.20;;
71937;SDS011;59810;48.800;9.086;2023-04-25T04:57:00;6.40;;;2.50;;
71937;SDS011;59810;48.800;9.086;2023-04-25T04:59:25;7.30;;;2.40;;
71937;SDS011;59810;48.800;9.086;2023-04-25T05:01:53;6.78;;;2.58;;
71937;SDS011;59810;48.800;9.086;2023-04-25T05:04:18;7.90;;;2.50;;
71937;SDS011;59810;48.800;9.086;2023-04-25T05:06:43;5.73;;;2.70;;
71937;SDS011;59810;48.800;9.086;2023-04-25T05:09:09;5.63;;;2.38;;
71937;SDS011;59810;48.800;9.086;2023-04-25T05:11:37;6.22;;;2.35;;
71937;SDS011;59810;48.800;9.086;2023-04-25T05:14:02;6.50;;;2.30;;
71937;SDS011;59810;48.800;9.086;2023-04-25T05:16:28;8.23;;;2.10;;
71937;SDS011;59810;48.800;9.086;2023-04-25T05:18:53;7.50;;;2.50;;
71937;SDS011;59810;48.800;9.086;2023-04-25T05:21:18;6.47;;;2.70;;
71937;SDS011;59810;48.800;9.086;2023-04-25T05:23:44;7.03;;;2.27;;
71937;SDS011;59810;48.800;9.086;2023-04-25T05:26:09;5.83;;;2.40;;
71937;SDS011;59810;48.800;9.086;2023-04-25T05:28:38;5.38;;;2.17;;
71937;SDS011;59810;48.800;9.086;2023-04-25T05:31:07;7.03;;;2.20;;
71937;SDS011;59810;48.800;9.086;2023-04-25T05:33:34;6.23;;;2.30;;
71937;SDS011;59810;48.800;9.086;2023-04-25T05:36:00;7.55;;;2.10;;
71937;SDS011;59810;48.800;9.086;2023-04-25T05:38:25;7.37;;;2.70;;
71937;SDS011;59810;48.800;9.086;2023-04-25T05:40:51;5.87;;;2.27;;
71937;SDS011;59810;48.800;9.086;2023-04-25T05:43:16;5.23;;;2.00;;
71937;SDS011;59810;48.800;9.086;2023-04-25T05:45:44;5.07;;;2.05;;
71937;SDS011;59810;48.800;9.086;2023-04-25T05:48:09;8.27;;;3.00;;
71937;SDS011;59810;48.800;9.086;2023-04-25T05:50:34;4.93;;;2.10;;
71937;SDS011;59810;48.800;9.086;2023-04-25T05:53:00;5.13;;;1.93;;
71937;SDS011;59810;48.800;9.086;2023-04-25T05:55:25;5.43;;;1.80;;
71937;SDS011;59810;48.800;9.086;2023-04-25T05:57:50;5.40;;;2.00;;
71937;SDS011;59810;48.800;9.086;2023-04-25T06:00:16;5.00;;;1.90;;
71937;SDS011;59810;48.800;9.086;2023-04-25T06:02:41;5.27;;;1.90;;
71937;SDS011;59810;48.800;9.086;2023-04-25T06:05:07;5.77;;;1.83;;
71937;SDS011;59810;48.800;9.086;2023-04-25T06:07:36;5.20;;;1.80;;
71937;SDS011;59810;48.800;9.086;2023-04-25T06:10:01;5.10;;;1.80;;
71937;SDS011;59810;48.800;9.086;2023-04-25T06:12:31;7.90;;;2.08;;
71937;SDS011;59810;48.800;9.086;2023-04-25T06:15:02;6.47;;;1.83;;
71937;SDS011;59810;48.800;9.086;2023-04-25T06:17:28;5.32;;;1.83;;
71937;SDS011;59810;48.800;9.086;2023-04-25T06:19:54;8.10;;;1.80;;
71937;SDS011;59810;48.800;9.086;2023-04-25T06:22:19;4.40;;;1.60;;
71937;SDS011;59810;48.800;9.086;2023-04-25T06:24:45;5.57;;;2.13;;
71937;SDS011;59810;48.800;9.086;2023-04-25T06:27:11;5.03;;;1.75;;
71937;SDS011;59810;48.800;9.086;2023-04-25T06:29:38;6.17;;;2.17;;
71937;SDS011;59810;48.800;9.086;2023-04-25T06:32:04;6.15;;;2.08;;
71937;SDS011;59810;48.800;9.086;2023-04-25T06:34:29;6.40;;;2.27;;
71937;SDS011;59810;48.800;9.086;2023-04-25T06:36:55;6.37;;;2.47;;
71937;SDS011;59810;48.800;9.086;2023-04-25T06:39:20;6.27;;;2.03;;
71937;SDS011;59810;48.800;9.086;2023-04-25T06:41:48;5.72;;;2.15;;
71937;SDS011;59810;48.800;9.086;2023-04-25T06:44:13;5.50;;;1.98;;
71937;SDS011;59810;48.800;9.086;2023-04-25T06:46:39;5.77;;;2.10;;
71937;SDS011;59810;48.800;9.086;2023-04-25T06:49:05;7.80;;;2.30;;
71937;SDS011;59810;48.800;9.086;2023-04-25T06:51:30;6.57;;;2.10;;
71937;SDS011;59810;48.800;9.086;2023-04-25T06:53:56;5.60;;;2.07;;
71937;SDS011;59810;48.800;9.086;2023-04-25T06:56:21;5.50;;;1.93;;
71937;SDS011;59810;48.800;9.086;2023-04-25T06:58:46;5.63;;;1.83;;
71937;SDS011;59810;48.800;9.086;2023-04-25T07:01:14;5.32;;;2.03;;
71937;SDS011;59810;48.800;9.086;2023-04-25T07:03:39;4.57;;;1.67;;
71937;SDS011;59810;48.800;9.086;2023-04-25T07:06:05;5.93;;;1.95;;
71937;SDS011;59810;48.800;9.086;2023-04-25T07:08:31;5.53;;;2.10;;
71937;SDS011;59810;48.800;9.086;2023-04-25T07:10:56;7.00;;;2.55;;
71937;SDS011;59810;48.800;9.086;2023-04-25T07:13:21;7.03;;;2.20;;
71937;SDS011;59810;48.800;9.086;2023-04-25T07:15:47;9.57;;;2.40;;
71937;SDS011;59810;48.800;9.086;2023-04-25T07:18:13;5.90;;;2.40;;
71937;SDS011;59810;48.800;9.086;2023-04-25T07:20:41;6.93;;;2.73;;
71937;SDS011;59810;48.800;9.086;2023-04-25T07:23:06;5.55;;;2.28;;
71937;SDS011;59810;48.800;9.086;2023-04-25T07:25:34;5.40;;;2.00;;
71937;SDS011;59810;48.800;9.086;2023-04-25T07:28:00;5.53;;;1.60;;
71937;SDS011;59810;48.800;9.086;2023-04-25T07:30:25;6.03;;;2.37;;
71937;SDS011;59810;48.800;9.086;2023-04-25T07:32:50;6.93;;;2.30;;
71937;SDS011;59810;48.800;9.086;2023-04-25T07:35:16;6.70;;;2.83;;
71937;SDS011;59810;48.800;9.086;2023-04-25T07:37:42;7.57;;;2.72;;
71937;SDS011;59810;48.800;9.086;2023-04-25T07:40:08;8.50;;;2.60;;
71937;SDS011;59810;48.800;9.086;2023-04-25T07:42:34;6.30;;;2.90;;
71937;SDS011;59810;48.800;9.086;2023-04-25T07:45:02;5.97;;;2.40;;
71937;SDS011;59810;48.800;9.086;2023-04-25T07:47:28;5.97;;;2.70;;
71937;SDS011;59810;48.800;9.086;2023-04-25T07:49:53;6.50;;;2.57;;
71937;SDS011;59810;48.800;9.086;2023-04-25T07:52:19;6.27;;;2.53;;
71937;SDS011;59810;48.800;9.086;2023-04-25T07:54:44;6.15;;;2.40;;
71937;SDS011;59810;48.800;9.086;2023-04-25T07:57:10;7.43;;;2.80;;
71937;SDS011;59810;48.800;9.086;2023-04-25T07:59:35;7.47;;;2.67;;
71937;SDS011;59810;48.800;9.086;2023-04-25T08:02:01;9.17;;;3.10;;
71937;SDS011;59810;48.800;9.086;2023-04-25T08:04:29;6.60;;;2.72;;
71937;SDS011;59810;48.800;9.086;2023-04-25T08:06:57;6.63;;;2.55;;
71937;SDS011;59810;48.800;9.086;2023-04-25T08:09:22;5.60;;;2.37;;
71937;SDS011;59810;48.800;9.086;2023-04-25T08:11:48;5.67;;;2.20;;
71937;SDS011;59810;48.800;9.086;2023-04-25T08:14:13;7.55;;;2.78;;
71937;SDS011;59810;48.800;9.086;2023-04-25T08:16:39;5.07;;;2.17;;
71937;SDS011;59810;48.800;9.086;2023-04-25T08:19:05;5.90;;;2.50;;
71937;SDS011;59810;48.800;9.086;2023-04-25T08:21:30;6.20;;;2.47;;
71937;SDS011;59810;48.800;9.086;2023-04-25T08:23:56;6.18;;;2.53;;
71937;SDS011;59810;48.800;9.086;2023-04-25T08:26:23;7.35;;;2.70;;
71937;SDS011;59810;48.800;9.086;2023-04-25T08:28:49;7.78;;;2.70;;
71937;SDS011;59810;48.800;9.086;2023-04-25T08:31:14;7.60;;;2.80;;
71937;SDS011;59810;48.800;9.086;2023-04-25T08:33:40;7.60;;;2.70;;
71937;SDS011;59810;48.800;9.086;2023-04-25T08:36:07;6.43;;;2.67;;
71937;SDS011;59810;48.800;9.086;2023-04-25T08:38:33;6.63;;;2.50;;
71937;SDS011;59810;48.800;9.086;2023-04-25T08:40:58;6.37;;;2.57;;
71937;SDS011;59810;48.800;9.086;2023-04-25T08:43:25;7.07;;;2.50;;
71937;SDS011;59810;48.800;9.086;2023-04-25T08:45:53;6.05;;;2.53;;
71937;SDS011;59810;48.800;9.086;2023-04-25T08:48:23;6.78;;;2.50;;
71937;SDS011;59810;48.800;9.086;2023-04-25T08:50:52;5.50;;;2.47;;
71937;SDS011;59810;48.800;9.086;2023-04-25T08:53:21;6.37;;;2.60;;
71937;SDS011;59810;48.800;9.086;2023-04-25T08:55:50;6.32;;;2.38;;
71937;SDS011;59810;48.800;9.086;2023-04-25T08:58:18;7.57;;;2.63;;
71937;SDS011;59810;48.800;9.086;2023-04-25T09:00:47;5.65;;;2.50;;
71937;SDS011;59810;48.800;9.086;2023-04-25T09:03:13;6.28;;;2.35;;
71937;SDS011;59810;48.800;9.086;2023-04-25T09:05:40;8.13;;;2.60;;
71937;SDS011;59810;48.800;9.086;2023-04-25T09:08:06;6.55;;;2.65;;
71937;SDS011;59810;48.800;9.086;2023-04-25T09:10:34;6.88;;;3.00;;
71937;SDS011;59810;48.800;9.086;2023-04-25T09:13:06;7.43;;;2.67;;
71937;SDS011;59810;48.800;9.086;2023-04-25T09:15:32;5.90;;;2.53;;
71937;SDS011;59810;48.800;9.086;2023-04-25T09:17:58;6.73;;;2.77;;
71937;SDS011;59810;48.800;9.086;2023-04-25T09:20:26;5.85;;;2.20;;
71937;SDS011;59810;48.800;9.086;2023-04-25T09:23:05;5.90;;;2.28;;
71937;SDS011;59810;48.800;9.086;2023-04-25T09:25:37;6.38;;;2.47;;
71937;SDS011;59810;48.800;9.086;2023-04-25T09:28:08;6.05;;;2.20;;
71937;SDS011;59810;48.800;9.086;2023-04-25T09:30:34;7.20;;;2.07;;
71937;SDS011;59810;48.800;9.086;2023-04-25T09:33:09;5.70;;;2.05;;
71937;SDS011;59810;48.800;9.086;2023-04-25T09:35:39;7.25;;;2.30;;
71937;SDS011;59810;48.800;9.086;2023-04-25T09:38:16;5.57;;;2.20;;
71937;SDS011;59810;48.800;9.086;2023-04-25T09:40:43;5.00;;;1.73;;
71937;SDS011;59810;48.800;9.086;2023-04-25T09:43:20;5.72;;;2.05;;
71937;SDS011;59810;48.800;9.086;2023-04-25T09:45:50;4.93;;;2.10;;
71937;SDS011;59810;48.800;9.086;2023-04-25T09:48:17;5.30;;;1.95;;
71937;SDS011;59810;48.800;9.086;2023-04-25T09:50:50;3.70;;;1.37;;
71937;SDS011;59810;48.800;9.086;2023-04-25T09:53:41;3.90;;;0.98;;
71937;SDS011;59810;48.800;9.086;2023-04-25T09:56:09;4.72;;;1.30;;
71937;SDS011;59810;48.800;9.086;2023-04-25T09:58:37;3.53;;;1.13;;
71937;SDS011;59810;48.800;9.086;2023-04-25T10:01:07;2.67;;;0.93;;
71937;SDS011;59810;48.800;9.086;2023-04-25T10:03:40;2.73;;;0.77;;
71937;SDS011;59810;48.800;9.086;2023-04-25T10:06:07;3.55;;;0.73;;
71937;SDS011;59810;48.800;9.086;2023-04-25T10:08:37;2.58;;;0.60;;
71937;SDS011;59810;48.800;9.086;2023-04-25T10:11:04;2.13;;;0.75;;
71937;SDS011;59810;48.800;9.086;2023-04-25T10:13:30;1.83;;;0.60;;
71937;SDS011;59810;48.800;9.086;2023-04-25T10:16:00;1.53;;;0.50;;
71937;SDS011;59810;48.800;9.086;2023-04-25T10:18:27;2.05;;;0.60;;
71937;SDS011;59810;48.800;9.086;2023-04-25T10:20:54;3.35;;;0.80;;
71937;SDS011;59810;48.800;9.086;2023-04-25T10:23:21;3.90;;;0.55;;
71937;SDS011;59810;48.800;9.086;2023-04-25T10:25:49;3.90;;;0.90;;
71937;SDS011;59810;48.800;9.086;2023-04-25T10:28:18;2.63;;;0.70;;
71937;SDS011;59810;48.800;9.086;2023-04-25T10:31:00;4.65;;;0.95;;
71937;SDS011;59810;48.800;9.086;2023-04-25T10:33:36;4.15;;;0.85;;
71937;SDS011;59810;48.800;9.086;2023-04-25T10:36:09;2.08;;;0.60;;
71937;SDS011;59810;48.800;9.086;2023-04-25T10:38:36;3.63;;;1.30;;
71937;SDS011;59810;48.800;9.086;2023-04-25T10:41:03;5.37;;;1.90;;
71937;SDS011;59810;48.800;9.086;2023-04-25T10:45:59;6.40;;;2.60;;
71937;SDS011;59810;48.800;9.086;2023-04-25T10:48:29;7.35;;;2.45;;
71937;SDS011;59810;48.800;9.086;2023-04-25T10:53:37;7.60;;;2.65;;
71937;SDS011;59810;48.800;9.086;2023-04-25T10:56:16;7.00;;;2.73;;
71937;SDS011;59810;48.800;9.086;2023-04-25T10:58:45;6.80;;;2.38;;
71937;SDS011;59810;48.800;9.086;2023-04-25T11:01:14;6.60;;;2.55;;
71937;SDS011;59810;48.800;9.086;2023-04-25T11:03:44;6.13;;;2.20;;
71937;SDS011;59810;48.800;9.086;2023-04-25T11:08:48;5.30;;;2.20;;
71937;SDS011;59810;48.800;9.086;2023-04-25T11:11:17;5.47;;;1.98;;
71937;SDS011;59810;48.800;9.086;2023-04-25T11:13:43;5.40;;;1.80;;
71937;SDS011;59810;48.800;9.086;2023-04-25T11:16:09;7.00;;;2.00;;
71937;SDS011;59810;48.800;9.086;2023-04-25T11:18:35;4.87;;;1.70;;
71937;SDS011;59810;48.800;9.086;2023-04-25T11:21:01;5.33;;;2.23;;
71937;SDS011;59810;48.800;9.086;2023-04-25T11:23:28;4.88;;;1.88;;
71937;SDS011;59810;48.800;9.086;2023-04-25T11:25:55;6.00;;;2.45;;
71937;SDS011;59810;48.800;9.086;2023-04-25T11:28:21;7.37;;;2.40;;
71937;SDS011;59810;48.800;9.086;2023-04-25T11:30:48;7.65;;;2.50;;
71937;SDS011;59810;48.800;9.086;2023-04-25T11:33:15;6.68;;;2.60;;
71937;SDS011;59810;48.800;9.086;2023-04-25T11:35:40;5.73;;;2.10;;
71937;SDS011;59810;48.800;9.086;2023-04-25T11:38:05;7.20;;;2.50;;
71937;SDS011;59810;48.800;9.086;2023-04-25T11:40:31;6.93;;;2.50;;
71937;SDS011;59810;48.800;9.086;2023-04-25T11:42:56;7.10;;;2.65;;
71937;SDS011;59810;48.800;9.086;2023-04-25T11:45:25;7.77;;;2.80;;
71937;SDS011;59810;48.800;9.086;2023-04-25T11:47:51;7.82;;;2.78;;
71937;SDS011;59810;48.800;9.086;2023-04-25T11:50:17;9.15;;;3.00;;
71937;SDS011;59810;48.800;9.086;2023-04-25T11:52:43;6.60;;;2.27;;
71937;SDS011;59810;48.800;9.086;2023-04-25T11:55:15;6.22;;;2.85;;
71937;SDS011;59810;48.800;9.086;2023-04-25T11:57:42;7.30;;;2.38;;
71937;SDS011;59810;48.800;9.086;2023-04-25T12:00:13;7.77;;;3.07;;
71937;SDS011;59810;48.800;9.086;2023-04-25T12:02:45;6.70;;;2.80;;
71937;SDS011;59810;48.800;9.086;2023-04-25T12:05:12;6.25;;;2.90;;
71937;SDS011;59810;48.800;9.086;2023-04-25T12:07:40;7.47;;;2.65;;
71937;SDS011;59810;48.800;9.086;2023-04-25T12:12:35;8.67;;;3.40;;
71937;SDS011;59810;48.800;9.086;2023-04-25T12:15:34;9.57;;;4.05;;
71937;SDS011;59810;48.800;9.086;2023-04-25T12:17:53;8.68;;;4.03;;
71937;SDS011;59810;48.800;9.086;2023-04-25T12:20:20;9.27;;;3.88;;
71937;SDS011;59810;48.800;9.086;2023-04-25T12:22:48;9.88;;;4.00;;
71937;SDS011;59810;48.800;9.086;2023-04-25T12:25:37;11.03;;;4.23;;
71937;SDS011;59810;48.800;9.086;2023-04-25T12:28:15;11.70;;;4.68;;
71937;SDS011;59810;48.800;9.086;2023-04-25T12:31:00;9.75;;;3.70;;
71937;SDS011;59810;48.800;9.086;2023-04-25T12:33:35;10.15;;;4.63;;
71937;SDS011;59810;48.800;9.086;2023-04-25T12:36:02;8.93;;;3.63;;
71937;SDS011;59810;48.800;9.086;2023-04-25T12:38:35;9.37;;;4.43;;
71937;SDS011;59810;48.800;9.086;2023-04-25T12:41:02;10.82;;;4.30;;
71937;SDS011;59810;48.800;9.086;2023-04-25T12:43:33;8.07;;;3.60;;
71937;SDS011;59810;48.800;9.086;2023-04-25T12:46:01;8.90;;;3.80;;
71937;SDS011;59810;48.800;9.086;2023-04-25T12:48:29;10.27;;;3.80;;
71937;SDS011;59810;48.800;9.086;2023-04-25T12:50:54;7.97;;;3.70;;
71937;SDS011;59810;48.800;9.086;2023-04-25T12:53:20;10.70;;;4.17;;
71937;SDS011;59810;48.800;9.086;2023-04-25T12:55:47;8.52;;;3.47;;
71937;SDS011;59810;48.800;9.086;2023-04-25T12:58:13;9.32;;;4.03;;
71937;SDS011;59810;48.800;9.086;2023-04-25T13:00:39;8.60;;;3.60;;
71937;SDS011;59810;48.800;9.086;2023-04-25T13:03:05;8.88;;;3.70;;
71937;SDS011;59810;48.800;9.086;2023-04-25T13:05:33;7.83;;;3.50;;
71937;SDS011;59810;48.800;9.086;2023-04-25T13:07:59;7.72;;;3.53;;
71937;SDS011;59810;48.800;9.086;2023-04-25T13:10:24;8.30;;;4.03;;
71937;SDS011;59810;48.800;9.086;2023-04-25T13:12:50;9.90;;;4.43;;
71937;SDS011;59810;48.800;9.086;2023-04-25T13:15:15;11.13;;;4.93;;
71937;SDS011;59810;48.800;9.086;2023-04-25T13:17:41;8.75;;;4.88;;
71937;SDS011;59810;48.800;9.086;2023-04-25T13:20:09;11.40;;;4.97;;
71937;SDS011;59810;48.800;9.086;2023-04-25T13:22:39;10.13;;;4.60;;
71937;SDS011;59810;48.800;9.086;2023-04-25T13:25:05;9.88;;;4.80;;
71937;SDS011;59810;48.800;9.086;2023-04-25T13:27:34;9.57;;;5.03;;
71937;SDS011;59810;48.800;9.086;2023-04-25T13:30:05;9.43;;;4.47;;
71937;SDS011;59810;48.800;9.086;2023-04-25T13:32:35;9.43;;;4.70;;
71937;SDS011;59810;48.800;9.086;2023-04-25T13:35:03;10.70;;;5.03;;
71937;SDS011;59810;48.800;9.086;2023-04-25T13:37:29;10.68;;;4.53;;
71937;SDS011;59810;48.800;9.086;2023-04-25T13:39:57;12.27;;;5.72;;
71937;SDS011;59810;48.800;9.086;2023-04-25T13:42:23;11.80;;;5.87;;
71937;SDS011;59810;48.800;9.086;2023-04-25T13:44:49;14.05;;;5.70;;
71937;SDS011;59810;48.800;9.086;2023-04-25T13:47:14;11.57;;;5.63;;
71937;SDS011;59810;48.800;9.086;2023-04-25T13:49:39;12.57;;;5.37;;
71937;SDS011;59810;48.800;9.086;2023-04-25T13:52:05;11.90;;;5.80;;
71937;SDS011;59810;48.800;9.086;2023-04-25T13:54:31;11.02;;;4.93;;
71937;SDS011;59810;48.800;9.086;2023-04-25T13:56:56;10.83;;;4.87;;
71937;SDS011;59810;48.800;9.086;2023-04-25T13:59:24;9.98;;;4.72;;
71937;SDS011;59810;48.800;9.086;2023-04-25T14:01:50;10.40;;;4.72;;
71937;SDS011;59810;48.800;9.086;2023-04-25T14:04:16;9.23;;;4.23;;
71937;SDS011;59810;48.800;9.086;2023-04-25T14:06:41;7.53;;;3.83;;
71937;SDS011;59810;48.800;9.086;2023-04-25T14:09:09;8.68;;;3.90;;
71937;SDS011;59810;48.800;9.086;2023-04-25T14:11:37;8.93;;;3.83;;
71937;SDS011;59810;48.800;9.086;2023-04-25T14:14:03;7.45;;;3.33;;
71937;SDS011;59810;48.800;9.086;2023-04-25T14:16:31;7.30;;;3.35;;
71937;SDS011;59810;48.800;9.086;2023-04-25T14:18:57;7.17;;;3.27;;
71937;SDS011;59810;48.800;9.086;2023-04-25T14:21:23;7.10;;;3.40;;
71937;SDS011;59810;48.800;9.086;2023-04-25T14:23:49;6.47;;;3.00;;
71937;SDS011;59810;48.800;9.086;2023-04-25T14:26:16;8.65;;;3.30;;
71937;SDS011;59810;48.800;9.086;2023-04-25T14:28:42;6.20;;;3.37;;
71937;SDS011;59810;48.800;9.086;2023-04-25T14:31:10;5.93;;;2.85;;
71937;SDS011;59810;48.800;9.086;2023-04-25T14:33:35;6.77;;;3.17;;
71937;SDS011;59810;48.800;9.086;2023-04-25T14:36:02;7.13;;;3.20;;
71937;SDS011;59810;48.800;9.086;2023-04-25T14:38:27;6.38;;;3.00;;
71937;SDS011;59810;48.800;9.086;2023-04-25T14:40:52;6.67;;;3.37;;
71937;SDS011;59810;48.800;9.086;2023-04-25T14:43:19;8.13;;;3.17;;
71937;SDS011;59810;48.800;9.086;2023-04-25T14:45:44;9.33;;;3.47;;
71937;SDS011;59810;48.800;9.086;2023-04-25T14:48:10;8.00;;;3.28;;
71937;SDS011;59810;48.800;9.086;2023-04-25T14:50:35;6.70;;;2.90;;
71937;SDS011;59810;48.800;9.086;2023-04-25T14:53:00;7.37;;;3.20;;
71937;SDS011;59810;48.800;9.086;2023-04-25T14:55:26;9.10;;;3.20;;
71937;SDS011;59810;48.800;9.086;2023-04-25T14:57:55;8.27;;;3.13;;